createdAt,value
2017-08-12T00:02:02.433Z,10.83
2017-08-12T00:04:32.079Z,9.20
2017-08-12T00:09:57.238Z,8.07
2017-08-12T00:12:26.842Z,8.57
2017-08-12T00:14:56.470Z,7.77
2017-08-12T00:17:26.055Z,8.97
2017-08-12T00:25:46.040Z,8.50
2017-08-12T00:28:15.638Z,7.93
2017-08-12T00:30:45.291Z,18.87
2017-08-12T00:36:09.797Z,15.77
2017-08-12T00:38:39.403Z,8.60
2017-08-12T00:41:09.038Z,8.50
2017-08-12T00:43:38.641Z,9.17
2017-08-12T00:46:08.264Z,9.47
2017-08-12T00:48:58.394Z,10.77
2017-08-12T00:51:28.061Z,10.77
2017-08-12T00:53:57.666Z,9.83
2017-08-12T00:56:27.338Z,10.63
2017-08-12T00:58:56.957Z,10.83
2017-08-12T01:04:22.691Z,9.73
2017-08-12T01:06:52.267Z,8.47
2017-08-12T01:09:21.919Z,9.40
2017-08-12T01:11:51.496Z,9.10
2017-08-12T01:14:21.136Z,8.60
2017-08-12T01:19:45.592Z,9.23
2017-08-12T01:22:15.177Z,8.77
2017-08-12T01:24:44.831Z,13.93
2017-08-12T01:27:14.420Z,9.20
2017-08-12T01:32:39.643Z,9.10
2017-08-12T01:35:09.239Z,10.13
2017-08-12T01:37:38.931Z,8.70
2017-08-12T01:40:08.514Z,10.80
2017-08-12T01:48:24.731Z,11.03
2017-08-12T01:50:54.342Z,9.20
2017-08-12T01:53:24.273Z,8.53
2017-08-12T01:55:53.846Z,8.30
2017-08-12T01:58:23.528Z,9.10
2017-08-12T02:00:53.105Z,9.53
2017-08-12T02:03:22.775Z,8.57
2017-08-12T02:05:52.353Z,8.47
2017-08-12T02:08:21.924Z,8.27
2017-08-12T02:16:41.096Z,7.87
2017-08-12T02:19:10.692Z,9.70
2017-08-12T02:21:40.363Z,12.80
2017-08-12T02:24:09.962Z,11.90
2017-08-12T02:29:35.035Z,10.30
2017-08-12T02:32:04.621Z,11.30
2017-08-12T02:34:34.198Z,9.17
2017-08-12T02:37:03.897Z,10.33
2017-08-12T02:42:28.229Z,9.10
2017-08-12T02:44:57.828Z,7.47
2017-08-12T02:47:27.505Z,8.40
2017-08-12T02:49:57.108Z,10.90
2017-08-12T02:58:01.069Z,8.70
2017-08-12T03:00:30.932Z,7.37
2017-08-12T03:03:00.594Z,9.17
2017-08-12T03:05:30.205Z,7.50
2017-08-12T03:13:49.879Z,10.73
2017-08-12T03:16:19.511Z,8.87
2017-08-12T03:18:49.128Z,8.07
2017-08-12T03:24:33.724Z,10.80
2017-08-12T03:27:03.338Z,11.23
2017-08-12T03:29:32.999Z,11.73
2017-08-12T03:32:02.604Z,8.73
2017-08-12T03:40:21.990Z,8.40
2017-08-12T03:42:51.578Z,7.03
2017-08-12T03:45:21.201Z,8.97
2017-08-12T03:47:50.847Z,8.60
2017-08-12T04:01:59.538Z,6.37
2017-08-12T04:04:29.144Z,6.83
2017-08-12T04:12:47.858Z,8.80
2017-08-12T04:15:17.456Z,6.47
2017-08-12T04:17:47.142Z,7.80
2017-08-12T04:23:12.223Z,6.83
2017-08-12T04:25:41.818Z,6.30
2017-08-12T04:28:11.437Z,8.67
2017-08-12T04:36:31.239Z,7.37
2017-08-12T04:39:00.827Z,7.30
2017-08-12T04:41:30.506Z,6.20
2017-08-12T04:49:49.275Z,6.53
2017-08-12T04:52:18.865Z,6.63
2017-08-12T04:54:48.531Z,5.90
2017-08-12T04:57:18.424Z,6.70
2017-08-12T05:02:43.016Z,5.40
2017-08-12T05:05:12.606Z,5.40
2017-08-12T05:07:42.268Z,5.90
2017-08-12T05:10:11.875Z,5.33
2017-08-12T05:18:31.032Z,7.10
2017-08-12T05:21:00.650Z,5.93
2017-08-12T05:23:30.320Z,6.67
2017-08-12T05:31:50.124Z,8.10
2017-08-12T05:34:19.799Z,8.90
2017-08-12T05:36:49.391Z,6.60
2017-08-12T05:39:35.373Z,9.10
2017-08-12T05:42:04.991Z,9.33
2017-08-12T05:44:34.657Z,7.70
2017-08-12T05:47:04.257Z,7.87
2017-08-12T05:49:33.911Z,8.27
2017-08-12T05:52:03.510Z,9.03
2017-08-12T05:57:28.600Z,10.60
2017-08-12T05:59:58.198Z,8.70
2017-08-12T06:02:28.711Z,8.27
2017-08-12T06:04:58.313Z,7.60
2017-08-12T06:07:27.964Z,6.57
2017-08-12T06:10:10.877Z,7.83
2017-08-12T06:18:30.649Z,8.93
2017-08-12T06:23:55.778Z,7.77
2017-08-12T06:26:25.375Z,5.83
2017-08-12T06:40:34.018Z,6.80
2017-08-12T06:49:00.324Z,6.60
2017-08-12T06:51:29.937Z,6.90
2017-08-12T07:02:46.418Z,6.80
2017-08-12T07:43:06.387Z,11.10
2017-08-12T07:45:36.873Z,7.37
2017-08-12T08:11:24.011Z,8.07
2017-08-12T08:13:53.639Z,7.27
2017-08-12T08:25:07.812Z,9.43
2017-08-12T08:27:37.409Z,6.43
2017-08-12T08:30:17.525Z,5.60
2017-08-12T08:32:47.147Z,7.20
2017-08-12T08:35:16.821Z,6.63
2017-08-12T08:37:46.425Z,7.33
2017-08-12T08:40:16.073Z,8.50
2017-08-12T08:42:45.677Z,6.83
2017-08-12T08:45:15.357Z,8.50
2017-08-12T08:47:44.967Z,7.70
2017-08-12T08:50:14.595Z,6.77
2017-08-12T08:52:44.204Z,6.60
2017-08-12T08:55:13.868Z,8.20
2017-08-12T09:12:26.821Z,6.37
2017-08-12T09:14:56.415Z,6.67
2017-08-12T09:17:26.068Z,6.47
2017-08-12T09:19:55.677Z,5.57
2017-08-12T09:22:25.343Z,5.10
2017-08-12T09:27:49.469Z,5.00
2017-08-12T09:30:19.091Z,5.30
2017-08-12T09:32:48.779Z,4.60
2017-08-12T09:35:18.380Z,7.70
2017-08-12T09:37:48.033Z,6.00
2017-08-12T09:40:17.639Z,5.03
2017-08-12T09:42:47.315Z,6.30
2017-08-12T09:45:16.913Z,5.33
2017-08-12T09:47:46.579Z,10.07
2017-08-12T09:50:16.170Z,5.00
2017-08-12T09:52:45.820Z,5.70
2017-08-12T10:06:54.612Z,5.20
2017-08-12T10:09:29.984Z,5.07
2017-08-12T10:11:59.621Z,4.67
2017-08-12T10:14:29.223Z,4.60
2017-08-12T10:16:58.971Z,4.60
2017-08-12T10:19:28.597Z,4.50
2017-08-12T10:21:58.248Z,4.00
2017-08-12T10:24:27.833Z,4.80
2017-08-12T10:26:57.506Z,7.47
2017-08-12T10:29:27.099Z,5.30
2017-08-12T10:31:56.764Z,5.10
2017-08-12T10:34:26.386Z,4.53
2017-08-12T10:42:45.765Z,4.80
2017-08-12T10:45:15.365Z,4.70
2017-08-12T10:47:46.005Z,4.13
2017-08-12T10:53:11.354Z,4.40
2017-08-12T10:55:40.965Z,5.33
2017-08-12T10:58:10.617Z,4.50
2017-08-12T11:00:40.224Z,4.63
2017-08-12T11:03:09.885Z,4.50
2017-08-12T11:08:34.823Z,4.20
2017-08-12T11:11:04.427Z,5.83
2017-08-12T11:13:34.113Z,4.30
2017-08-12T11:16:03.707Z,4.57
2017-08-12T11:21:28.750Z,4.10
2017-08-12T11:23:58.390Z,5.00
2017-08-12T11:26:28.044Z,4.77
2017-08-12T11:28:57.634Z,4.50
2017-08-12T11:31:27.298Z,4.27
2017-08-12T11:33:56.909Z,4.87
2017-08-12T11:36:26.525Z,4.60
2017-08-12T11:38:56.185Z,4.60
2017-08-12T11:41:25.998Z,3.97
2017-08-12T11:43:55.658Z,4.10
2017-08-12T11:49:20.595Z,4.00
2017-08-12T11:51:50.208Z,4.27
2017-08-12T11:54:19.887Z,4.30
2017-08-12T11:56:49.483Z,5.53
2017-08-12T11:59:19.149Z,4.13
2017-08-12T12:01:48.758Z,5.23
2017-08-12T12:04:18.407Z,4.07
2017-08-12T12:06:48.007Z,4.93
2017-08-12T12:09:17.695Z,4.10
2017-08-12T12:11:47.322Z,4.30
2017-08-12T12:17:12.243Z,4.90
2017-08-12T12:19:41.829Z,4.60
2017-08-12T12:22:11.471Z,4.20
2017-08-12T12:24:41.097Z,3.90
2017-08-12T12:27:10.769Z,6.50
2017-08-12T12:29:40.365Z,4.60
2017-08-12T12:32:10.006Z,4.30
2017-08-12T12:34:39.615Z,4.10
2017-08-12T12:42:59.400Z,3.77
2017-08-12T12:45:29.080Z,4.60
2017-08-12T12:50:53.246Z,5.07
2017-08-12T12:59:12.178Z,4.37
2017-08-12T13:10:26.192Z,4.43
2017-08-12T13:21:34.622Z,4.23
2017-08-12T13:29:53.866Z,4.23
2017-08-12T13:32:36.634Z,4.00
2017-08-12T13:46:44.984Z,4.20
2017-08-12T13:49:14.580Z,5.27
2017-08-12T13:51:44.199Z,4.20
2017-08-12T13:54:16.801Z,4.13
2017-08-12T13:56:46.452Z,4.50
2017-08-12T14:02:10.714Z,4.80
2017-08-12T14:25:03.840Z,4.20
2017-08-12T14:48:09.003Z,4.97
2017-08-12T14:50:38.594Z,5.23
2017-08-12T14:53:08.249Z,5.00
2017-08-12T14:55:54.830Z,4.20
2017-08-12T15:07:09.169Z,4.10
2017-08-12T15:12:34.384Z,4.60
2017-08-12T15:17:59.237Z,4.83
2017-08-12T15:20:28.822Z,5.60
2017-08-12T15:25:53.112Z,5.53
2017-08-12T15:28:22.708Z,4.97
2017-08-12T15:33:47.774Z,4.60
2017-08-12T15:36:17.382Z,5.03
2017-08-12T15:38:47.049Z,4.73
2017-08-12T15:41:33.899Z,7.97
2017-08-12T15:46:58.803Z,4.53
2017-08-12T15:49:29.170Z,4.20
2017-08-12T15:51:59.206Z,7.47
2017-08-12T15:54:28.813Z,4.63
2017-08-12T15:56:58.616Z,5.50
2017-08-12T15:59:34.727Z,5.20
2017-08-12T16:02:04.351Z,5.03
2017-08-12T16:04:33.959Z,7.70
2017-08-12T16:07:03.654Z,4.60
2017-08-12T16:09:34.416Z,4.80
2017-08-12T16:14:58.598Z,5.30
2017-08-12T16:17:28.989Z,4.90
2017-08-12T16:19:58.643Z,5.00
2017-08-12T16:22:28.270Z,5.73
2017-08-12T16:24:57.923Z,5.13
2017-08-12T16:33:17.751Z,6.10
2017-08-12T16:35:47.338Z,6.00
2017-08-12T16:38:16.987Z,5.00
2017-08-12T16:43:41.176Z,6.30
2017-08-12T16:46:10.775Z,4.73
2017-08-12T16:48:40.441Z,5.67
2017-08-12T16:51:10.075Z,5.87
2017-08-12T16:53:39.730Z,5.50
2017-08-12T16:56:09.318Z,5.40
2017-08-12T16:58:38.984Z,5.63
2017-08-12T17:01:08.564Z,5.00
2017-08-12T17:03:38.257Z,5.37
2017-08-12T17:06:07.856Z,5.40
2017-08-12T17:11:33.063Z,5.90
2017-08-12T17:14:03.087Z,4.80
2017-08-12T17:16:34.454Z,5.13
2017-08-12T17:19:04.052Z,5.80
2017-08-12T17:21:33.693Z,5.70
2017-08-12T17:24:03.274Z,7.80
2017-08-12T17:26:33.010Z,6.00
2017-08-12T17:29:02.643Z,4.93
2017-08-12T17:31:32.301Z,5.77
2017-08-12T17:34:21.259Z,6.70
2017-08-12T17:42:53.262Z,7.00
2017-08-12T17:48:36.314Z,9.87
2017-08-12T17:56:56.071Z,5.13
2017-08-12T18:08:17.153Z,5.60
2017-08-12T18:22:25.133Z,5.13
2017-08-12T18:24:54.731Z,7.40
2017-08-12T18:27:24.337Z,5.60
2017-08-12T18:29:54.107Z,6.77
2017-08-12T18:35:18.435Z,6.50
2017-08-12T18:37:48.026Z,6.70
2017-08-12T18:40:17.678Z,6.47
2017-08-12T18:42:47.287Z,5.80
2017-08-12T18:45:16.886Z,7.27
2017-08-12T18:50:41.888Z,7.40
2017-08-12T18:53:11.490Z,7.07
2017-08-12T18:55:41.086Z,5.53
2017-08-12T18:58:10.752Z,6.90
2017-08-12T19:00:52.718Z,6.20
2017-08-12T19:03:22.341Z,6.20
2017-08-12T19:05:51.953Z,6.07
2017-08-12T19:14:35.566Z,5.67
2017-08-12T19:20:00.523Z,7.33
2017-08-12T19:25:25.798Z,11.47
2017-08-12T19:33:55.292Z,7.00
2017-08-12T19:39:36.142Z,6.20
2017-08-12T19:53:50.174Z,7.10
2017-08-12T20:05:06.811Z,10.10
2017-08-12T20:13:35.426Z,6.90
2017-08-12T20:16:23.887Z,7.60
2017-08-12T20:27:43.748Z,10.53
2017-08-12T20:41:51.857Z,8.57
2017-08-12T20:53:06.081Z,7.40
2017-08-12T21:01:35.496Z,10.57
2017-08-12T21:18:36.690Z,11.37
2017-08-12T21:29:53.846Z,14.10
2017-08-12T21:35:36.951Z,31.93
2017-08-12T22:01:36.923Z,13.27
2017-08-12T22:32:51.820Z,12.17
2017-08-12T22:38:35.931Z,14.10
2017-08-12T22:49:35.786Z,13.73
2017-08-12T23:03:41.009Z,9.13
2017-08-12T23:09:05.239Z,9.33
2017-08-12T23:14:30.393Z,9.37
2017-08-12T23:17:00.017Z,9.47
2017-08-12T23:31:08.967Z,15.77
2017-08-12T23:33:38.559Z,19.27
2017-08-12T23:36:08.238Z,11.33
2017-08-12T23:38:37.845Z,11.43
2017-08-12T23:49:51.265Z,9.40
2017-08-12T23:52:20.870Z,10.50
2017-08-12T23:54:51.358Z,11.40
2017-08-12T23:57:20.992Z,12.83
2017-08-12T23:59:50.644Z,9.57
